X  Close Metar Aviation Weather Data        LDPL Pula
Temperature
50°F Temperature
30°F Dewpoint
46% Humidity



Wind
20 MPH
31 KM/H
9 M/S
17 KTS



80°
E
Current Conditions

Mostly Clear Mostly Clear
Pressure 1014 (hPa) - 29.94 (inHg)
Visibility 6 (mile) - 10 (km)
Airport
Airport-code LDPL

Location: Pula
Distance: 39 (mi)

Metar:
METAR LDPL 220000Z 08017KT CAVOK 10/M01 Q1014

Time: 22-04-2024 02:00 CEST